Sion, Switzerland
Current Conditions -  °F | °C
As of 3:50 AM on Tuesday 27 Jan 2015 (Local Time) from LSMS Reporting Station
Light Snow Light Snow  
Wind Chill: 28°   Ceiling: Unl
Heat Index: 28°   Visibility: 1.6mi
Dew Point: 28°   Wind: 0mph
Humidity: 100%   Direction: NA
Pressure: 30.21"   Gusts: NA
Location:  46.25°N, 7.35°E
Report Text: LSMS 270250Z AUTO 00000KT 2700NDV -SN BR NCD M02/M02 Q1023 RMKYLO
Loading
Personal Weather Stations






























Interactive Weather Map New forecast layout! Learn more

10-Day Weather Forecast

Advertisements
Track Severe Weather on mobile